createdAt,value
2022-12-12T00:00:10.512Z,23.41
2022-12-12T00:00:40.630Z,23.38
2022-12-12T00:01:10.753Z,23.38
2022-12-12T00:01:40.741Z,23.40
2022-12-12T00:02:11.061Z,23.38
2022-12-12T00:02:41.051Z,23.38
2022-12-12T00:03:11.209Z,23.36
2022-12-12T00:03:41.264Z,23.40
2022-12-12T00:04:11.164Z,23.38
2022-12-12T00:04:41.278Z,23.40
2022-12-12T00:05:11.735Z,23.37
2022-12-12T00:05:41.352Z,23.38
2022-12-12T00:06:11.477Z,23.40
2022-12-12T00:06:41.477Z,23.40
2022-12-12T00:07:11.476Z,23.40
2022-12-12T00:07:41.466Z,23.40
2022-12-12T00:08:11.631Z,23.40
2022-12-12T00:08:41.625Z,23.40
2022-12-12T00:09:11.742Z,23.38
2022-12-12T00:09:41.745Z,23.38
2022-12-12T00:10:11.746Z,23.37
2022-12-12T00:10:41.775Z,23.37
2022-12-12T00:11:11.805Z,23.37
2022-12-12T00:11:41.841Z,23.37
2022-12-12T00:12:11.873Z,23.37
2022-12-12T00:12:41.905Z,23.36
2022-12-12T00:13:11.942Z,23.40
2022-12-12T00:13:41.974Z,23.38
2022-12-12T00:14:12.019Z,23.37
2022-12-12T00:14:42.041Z,23.38
2022-12-12T00:15:12.383Z,23.38
2022-12-12T00:15:42.250Z,23.40
2022-12-12T00:16:12.271Z,23.40
2022-12-12T00:16:42.311Z,23.38
2022-12-12T00:17:12.349Z,23.40
2022-12-12T00:17:42.406Z,23.38
2022-12-12T00:18:12.410Z,23.38
2022-12-12T00:18:42.442Z,23.38
2022-12-12T00:19:12.478Z,23.38
2022-12-12T00:19:42.511Z,23.37
2022-12-12T00:20:12.551Z,23.40
2022-12-12T00:20:42.577Z,23.38
2022-12-12T00:21:12.609Z,23.40
2022-12-12T00:21:42.645Z,23.40
2022-12-12T00:22:12.684Z,23.37
2022-12-12T00:22:42.711Z,23.38
2022-12-12T00:23:12.739Z,23.38
2022-12-12T00:23:42.773Z,23.40
2022-12-12T00:24:12.804Z,23.38
2022-12-12T00:24:42.838Z,23.38
2022-12-12T00:25:13.190Z,23.37
2022-12-12T00:25:42.988Z,23.40
2022-12-12T00:26:13.017Z,23.37
2022-12-12T00:26:43.048Z,23.38
2022-12-12T00:27:13.077Z,23.37
2022-12-12T00:27:43.110Z,23.37
2022-12-12T00:28:13.144Z,23.37
2022-12-12T00:28:43.172Z,23.38
2022-12-12T00:29:13.213Z,23.36
2022-12-12T00:29:43.240Z,23.37
2022-12-12T00:30:13.269Z,23.41
2022-12-12T00:30:43.305Z,23.38
2022-12-12T00:31:13.387Z,23.37
2022-12-12T00:31:43.410Z,23.38
2022-12-12T00:32:13.451Z,23.37
2022-12-12T00:32:43.480Z,23.38
2022-12-12T00:33:13.535Z,23.37
2022-12-12T00:33:43.551Z,23.36
2022-12-12T00:34:13.581Z,23.38
2022-12-12T00:34:43.660Z,23.37
2022-12-12T00:35:13.877Z,23.37
2022-12-12T00:35:43.682Z,23.36
2022-12-12T00:36:13.733Z,23.37
2022-12-12T00:36:43.757Z,23.40
2022-12-12T00:37:13.817Z,23.37
2022-12-12T00:37:43.854Z,23.38
2022-12-12T00:38:13.897Z,23.36
2022-12-12T00:38:43.921Z,23.38
2022-12-12T00:39:18.297Z,23.37
2022-12-12T00:39:44.056Z,23.38
2022-12-12T00:40:14.081Z,23.37
2022-12-12T00:40:44.112Z,23.37
2022-12-12T00:41:14.148Z,23.37
2022-12-12T00:41:44.180Z,23.38
2022-12-12T00:42:14.211Z,23.36
2022-12-12T00:42:44.243Z,23.38
2022-12-12T00:43:14.277Z,23.38
2022-12-12T00:43:44.304Z,23.37
2022-12-12T00:44:14.340Z,23.38
2022-12-12T00:44:44.365Z,23.38
2022-12-12T00:45:14.885Z,23.37
2022-12-12T00:45:44.510Z,23.37
2022-12-12T00:46:14.599Z,23.36
2022-12-12T00:46:44.732Z,23.37
2022-12-12T00:47:14.638Z,23.38
2022-12-12T00:47:44.663Z,23.37
2022-12-12T00:48:14.697Z,23.37
2022-12-12T00:48:44.758Z,23.36
2022-12-12T00:49:14.767Z,23.36
2022-12-12T00:49:44.796Z,23.37
2022-12-12T00:50:14.826Z,23.34
2022-12-12T00:50:44.864Z,23.36
2022-12-12T00:51:14.895Z,23.36
2022-12-12T00:51:44.930Z,23.36
2022-12-12T00:52:14.967Z,23.36
2022-12-12T00:52:45.016Z,23.37
2022-12-12T00:53:15.053Z,23.36
2022-12-12T00:53:45.082Z,23.37
2022-12-12T00:54:15.116Z,23.34
2022-12-12T00:54:45.147Z,23.38
2022-12-12T00:55:15.589Z,23.37
2022-12-12T00:55:45.245Z,23.36
2022-12-12T00:56:15.275Z,23.34
2022-12-12T00:56:45.313Z,23.37
2022-12-12T00:57:15.348Z,23.34
2022-12-12T00:57:45.376Z,23.38
2022-12-12T00:58:15.414Z,23.36
2022-12-12T00:58:45.448Z,23.36
2022-12-12T00:59:15.476Z,23.34
2022-12-12T00:59:45.510Z,23.36
2022-12-12T01:00:15.531Z,23.37
2022-12-12T01:00:45.651Z,23.38
2022-12-12T01:01:15.717Z,23.34
2022-12-12T01:01:45.737Z,23.37
2022-12-12T01:02:15.727Z,23.36
2022-12-12T01:02:45.743Z,23.34
2022-12-12T01:03:15.788Z,23.36
2022-12-12T01:03:45.757Z,23.38
2022-12-12T01:04:15.780Z,23.37
2022-12-12T01:04:45.748Z,23.37
2022-12-12T01:05:15.901Z,23.38
2022-12-12T01:05:45.775Z,23.36
2022-12-12T01:06:15.896Z,23.37
2022-12-12T01:06:45.903Z,23.36
2022-12-12T01:07:15.913Z,23.36
2022-12-12T01:07:46.045Z,23.37
2022-12-12T01:08:16.091Z,23.38
2022-12-12T01:08:46.074Z,23.37
2022-12-12T01:09:16.187Z,23.38
2022-12-12T01:09:46.191Z,23.36
2022-12-12T01:10:16.208Z,23.37
2022-12-12T01:10:46.239Z,23.36
2022-12-12T01:11:16.276Z,23.37
2022-12-12T01:11:46.316Z,23.36
2022-12-12T01:12:16.340Z,23.37
2022-12-12T01:12:46.376Z,23.36
2022-12-12T01:13:16.418Z,23.37
2022-12-12T01:13:46.442Z,23.38
2022-12-12T01:14:16.475Z,23.38
2022-12-12T01:14:46.507Z,23.34
2022-12-12T01:15:16.538Z,23.36
2022-12-12T01:15:46.597Z,23.36
2022-12-12T01:16:16.637Z,23.36
2022-12-12T01:16:46.678Z,23.36
2022-12-12T01:17:16.712Z,23.37
2022-12-12T01:17:46.751Z,23.37
2022-12-12T01:18:16.781Z,23.37
2022-12-12T01:18:46.823Z,23.37
2022-12-12T01:19:16.843Z,23.37
2022-12-12T01:19:46.960Z,23.37
2022-12-12T01:20:16.954Z,23.37
2022-12-12T01:20:46.991Z,23.36
2022-12-12T01:21:17.018Z,23.37
2022-12-12T01:21:47.056Z,23.38
2022-12-12T01:22:17.086Z,23.37
2022-12-12T01:22:47.128Z,23.37
2022-12-12T01:23:17.164Z,23.37
2022-12-12T01:23:47.197Z,23.40
2022-12-12T01:24:17.229Z,23.38
2022-12-12T01:24:47.268Z,23.37
2022-12-12T01:25:17.291Z,23.37
2022-12-12T01:25:47.319Z,23.36
2022-12-12T01:26:17.350Z,23.37
2022-12-12T01:26:47.388Z,23.34
2022-12-12T01:27:17.423Z,23.36
2022-12-12T01:27:47.457Z,23.40
2022-12-12T01:28:17.486Z,23.36
2022-12-12T01:28:47.522Z,23.37
2022-12-12T01:29:17.555Z,23.37
2022-12-12T01:29:47.585Z,23.36
2022-12-12T01:30:17.616Z,23.36
2022-12-12T01:30:47.648Z,23.36
2022-12-12T01:31:17.782Z,23.37
2022-12-12T01:31:47.724Z,23.37
2022-12-12T01:32:17.727Z,23.38
2022-12-12T01:32:47.757Z,23.36
2022-12-12T01:33:17.794Z,23.38
2022-12-12T01:33:47.823Z,23.36
2022-12-12T01:34:17.854Z,23.37
2022-12-12T01:34:47.884Z,23.37
2022-12-12T01:35:17.945Z,23.37
2022-12-12T01:35:47.950Z,23.37
2022-12-12T01:36:17.990Z,23.38
2022-12-12T01:36:48.030Z,23.37
2022-12-12T01:37:18.053Z,23.36
2022-12-12T01:37:48.105Z,23.37
2022-12-12T01:38:18.140Z,23.38
2022-12-12T01:38:48.166Z,23.37
2022-12-12T01:39:18.204Z,23.38
2022-12-12T01:39:48.238Z,23.36
2022-12-12T01:40:18.262Z,23.36
2022-12-12T01:40:48.296Z,23.34
2022-12-12T01:41:18.329Z,23.36
2022-12-12T01:41:48.356Z,23.36
2022-12-12T01:42:18.388Z,23.36
2022-12-12T01:42:48.454Z,23.36
2022-12-12T01:43:18.484Z,23.38
2022-12-12T01:43:48.518Z,23.37
2022-12-12T01:44:18.549Z,23.36
2022-12-12T01:44:48.582Z,23.34
2022-12-12T01:45:18.615Z,23.36
2022-12-12T01:45:48.647Z,23.36
2022-12-12T01:46:18.727Z,23.36
2022-12-12T01:46:48.815Z,23.37
2022-12-12T01:47:18.827Z,23.36
2022-12-12T01:47:48.866Z,23.38
2022-12-12T01:48:18.899Z,23.34
2022-12-12T01:48:48.934Z,23.36
2022-12-12T01:49:18.966Z,23.37
2022-12-12T01:49:48.998Z,23.36
2022-12-12T01:50:19.036Z,23.37
2022-12-12T01:50:49.099Z,23.37
2022-12-12T01:51:19.097Z,23.36
2022-12-12T01:51:49.128Z,23.37
2022-12-12T01:52:19.158Z,23.37
2022-12-12T01:52:49.206Z,23.36
2022-12-12T01:53:19.229Z,23.36
2022-12-12T01:53:49.263Z,23.37
2022-12-12T01:54:19.289Z,23.36
2022-12-12T01:54:49.366Z,23.37
2022-12-12T01:55:19.364Z,23.38
2022-12-12T01:55:49.400Z,23.37
2022-12-12T01:56:19.425Z,23.37
2022-12-12T01:56:49.459Z,23.34
2022-12-12T01:57:19.491Z,23.36
2022-12-12T01:57:49.527Z,23.37
2022-12-12T01:58:19.557Z,23.37
2022-12-12T01:58:49.588Z,23.36
2022-12-12T01:59:19.618Z,23.34
2022-12-12T01:59:49.654Z,23.36
2022-12-12T02:00:19.670Z,23.34
2022-12-12T02:00:49.778Z,23.36
2022-12-12T02:01:19.746Z,23.36
2022-12-12T02:01:49.916Z,23.36
2022-12-12T02:02:19.997Z,23.34
2022-12-12T02:02:49.971Z,23.36
2022-12-12T02:03:20.086Z,23.36
2022-12-12T02:03:50.078Z,23.36
2022-12-12T02:04:20.071Z,23.37
2022-12-12T02:04:50.190Z,23.36
2022-12-12T02:05:20.187Z,23.36
2022-12-12T02:05:50.178Z,23.36
2022-12-12T02:06:20.368Z,23.37
2022-12-12T02:06:50.319Z,23.34
2022-12-12T02:07:20.314Z,23.37
2022-12-12T02:07:50.516Z,23.36
2022-12-12T02:08:20.566Z,23.36
2022-12-12T02:08:50.580Z,23.36
2022-12-12T02:09:20.569Z,23.34
2022-12-12T02:09:50.688Z,23.36
2022-12-12T02:10:20.704Z,23.34
2022-12-12T02:10:50.735Z,23.36
2022-12-12T02:11:20.765Z,23.34
2022-12-12T02:11:50.810Z,23.33
2022-12-12T02:12:20.839Z,23.36
2022-12-12T02:12:50.868Z,23.34
2022-12-12T02:13:20.917Z,23.34
2022-12-12T02:13:50.952Z,23.37
2022-12-12T02:14:21.002Z,23.36
2022-12-12T02:14:51.043Z,23.36
2022-12-12T02:15:21.070Z,23.36
2022-12-12T02:15:51.148Z,23.36
2022-12-12T02:16:21.273Z,23.36
2022-12-12T02:16:51.173Z,23.36
2022-12-12T02:17:21.203Z,23.33
2022-12-12T02:17:51.247Z,23.34
2022-12-12T02:18:21.278Z,23.33
2022-12-12T02:18:51.309Z,23.34
2022-12-12T02:19:21.340Z,23.36
2022-12-12T02:19:51.377Z,23.37
2022-12-12T02:20:21.402Z,23.34
2022-12-12T02:20:51.439Z,23.33
2022-12-12T02:21:21.473Z,23.34
2022-12-12T02:21:51.529Z,23.36
2022-12-12T02:22:21.546Z,23.36
2022-12-12T02:22:51.581Z,23.36
2022-12-12T02:23:21.619Z,23.34
2022-12-12T02:23:51.648Z,23.34
2022-12-12T02:24:25.927Z,23.36
2022-12-12T02:24:51.733Z,23.34
2022-12-12T02:25:21.763Z,23.33
2022-12-12T02:25:51.799Z,23.34
2022-12-12T02:26:21.824Z,23.36
2022-12-12T02:26:51.858Z,23.34
2022-12-12T02:27:21.888Z,23.37
2022-12-12T02:27:51.920Z,23.34
2022-12-12T02:28:21.955Z,23.36
2022-12-12T02:28:51.987Z,23.33
2022-12-12T02:29:22.011Z,23.34
2022-12-12T02:29:52.047Z,23.37
2022-12-12T02:30:22.077Z,23.37
2022-12-12T02:30:52.108Z,23.33
2022-12-12T02:31:22.228Z,23.36
2022-12-12T02:31:52.293Z,23.34
2022-12-12T02:32:22.323Z,23.34
2022-12-12T02:32:52.356Z,23.36
2022-12-12T02:33:22.397Z,23.34
2022-12-12T02:33:52.428Z,23.34
2022-12-12T02:34:22.461Z,23.34
2022-12-12T02:34:52.494Z,23.34
2022-12-12T02:35:22.522Z,23.34
2022-12-12T02:35:52.551Z,23.36
2022-12-12T02:36:22.585Z,23.34
2022-12-12T02:36:52.615Z,23.37
2022-12-12T02:37:22.677Z,23.36
2022-12-12T02:37:52.688Z,23.34
2022-12-12T02:38:22.735Z,23.36
2022-12-12T02:38:52.771Z,23.36
2022-12-12T02:39:22.801Z,23.33
2022-12-12T02:39:52.830Z,23.36
2022-12-12T02:40:22.858Z,23.36
2022-12-12T02:40:52.888Z,23.34
2022-12-12T02:41:22.927Z,23.34
2022-12-12T02:41:52.952Z,23.36
2022-12-12T02:42:22.982Z,23.34
2022-12-12T02:42:53.017Z,23.36
2022-12-12T02:43:23.052Z,23.37
2022-12-12T02:43:53.086Z,23.34
2022-12-12T02:44:23.116Z,23.36
2022-12-12T02:44:53.149Z,23.36
2022-12-12T02:45:23.178Z,23.34
2022-12-12T02:45:53.215Z,23.36
2022-12-12T02:46:23.280Z,23.37
2022-12-12T02:46:53.369Z,23.36
2022-12-12T02:47:23.420Z,23.37
2022-12-12T02:47:53.449Z,23.34
2022-12-12T02:48:23.487Z,23.36
2022-12-12T02:48:53.519Z,23.34
2022-12-12T02:49:23.549Z,23.34
2022-12-12T02:49:53.582Z,23.36
2022-12-12T02:50:23.611Z,23.34
2022-12-12T02:50:53.639Z,23.34
2022-12-12T02:51:23.674Z,23.33
2022-12-12T02:51:53.706Z,23.34
2022-12-12T02:52:23.736Z,23.34
2022-12-12T02:52:53.793Z,23.33
2022-12-12T02:53:23.808Z,23.34
2022-12-12T02:53:53.844Z,23.36
2022-12-12T02:54:23.875Z,23.33
2022-12-12T02:54:53.906Z,23.34
2022-12-12T02:55:23.946Z,23.36
2022-12-12T02:55:53.973Z,23.34
2022-12-12T02:56:24.007Z,23.34
2022-12-12T02:56:54.034Z,23.33
2022-12-12T02:57:24.074Z,23.34
2022-12-12T02:57:54.107Z,23.36
2022-12-12T02:58:24.140Z,23.34
2022-12-12T02:58:54.170Z,23.33
2022-12-12T02:59:24.211Z,23.33
2022-12-12T02:59:54.241Z,23.34
2022-12-12T03:00:24.241Z,23.34
2022-12-12T03:00:54.330Z,23.34
2022-12-12T03:01:24.319Z,23.34
2022-12-12T03:01:54.341Z,23.36
2022-12-12T03:02:24.420Z,23.34
2022-12-12T03:02:54.432Z,23.36
2022-12-12T03:03:24.553Z,23.34
2022-12-12T03:03:54.554Z,23.33
2022-12-12T03:04:24.541Z,23.34
2022-12-12T03:04:54.660Z,23.34
2022-12-12T03:05:24.663Z,23.34
2022-12-12T03:05:54.657Z,23.36
2022-12-12T03:06:24.650Z,23.34
2022-12-12T03:06:54.646Z,23.36
2022-12-12T03:07:24.760Z,23.36
2022-12-12T03:07:54.942Z,23.32
2022-12-12T03:08:25.008Z,23.36
2022-12-12T03:08:55.029Z,23.34
2022-12-12T03:09:25.020Z,23.36
2022-12-12T03:09:55.147Z,23.33
2022-12-12T03:10:25.163Z,23.34
2022-12-12T03:10:55.198Z,23.34
2022-12-12T03:11:25.227Z,23.34
2022-12-12T03:11:55.263Z,23.34
2022-12-12T03:12:25.293Z,23.34
2022-12-12T03:12:55.328Z,23.34
2022-12-12T03:13:25.352Z,23.33
2022-12-12T03:13:55.388Z,23.33
2022-12-12T03:14:25.425Z,23.36
2022-12-12T03:14:55.458Z,23.34
2022-12-12T03:15:25.490Z,23.34
2022-12-12T03:15:55.578Z,23.36
2022-12-12T03:16:25.665Z,23.36
2022-12-12T03:16:55.696Z,23.34
2022-12-12T03:17:25.753Z,23.34
2022-12-12T03:17:55.783Z,23.34
2022-12-12T03:18:25.818Z,23.36
2022-12-12T03:18:57.248Z,23.34
2022-12-12T03:19:25.857Z,23.34
2022-12-12T03:19:55.891Z,23.34
2022-12-12T03:20:25.923Z,23.34
2022-12-12T03:20:55.949Z,23.33
2022-12-12T03:21:25.984Z,23.36
2022-12-12T03:21:56.016Z,23.33
2022-12-12T03:22:26.059Z,23.33
2022-12-12T03:22:56.097Z,23.33
2022-12-12T03:23:26.112Z,23.36
2022-12-12T03:23:56.167Z,23.33
2022-12-12T03:24:26.173Z,23.36
2022-12-12T03:24:56.207Z,23.33
2022-12-12T03:25:26.234Z,23.34
2022-12-12T03:25:56.263Z,23.33
2022-12-12T03:26:26.296Z,23.34
2022-12-12T03:26:56.326Z,23.34
2022-12-12T03:27:26.359Z,23.34
2022-12-12T03:27:56.394Z,23.33
2022-12-12T03:28:26.428Z,23.33
2022-12-12T03:28:56.460Z,23.33
2022-12-12T03:29:26.492Z,23.33
2022-12-12T03:29:56.525Z,23.32
2022-12-12T03:30:26.561Z,23.32
2022-12-12T03:30:56.585Z,23.32
2022-12-12T03:31:26.662Z,23.34
2022-12-12T03:31:56.793Z,23.32
2022-12-12T03:32:26.810Z,23.30
2022-12-12T03:32:56.867Z,23.33
2022-12-12T03:33:26.888Z,23.34
2022-12-12T03:33:56.919Z,23.32
2022-12-12T03:34:26.947Z,23.32
2022-12-12T03:34:56.990Z,23.33
2022-12-12T03:35:27.027Z,23.33
2022-12-12T03:35:57.055Z,23.33
2022-12-12T03:36:27.091Z,23.33
2022-12-12T03:36:57.118Z,23.32
2022-12-12T03:37:27.149Z,23.34
2022-12-12T03:37:57.185Z,23.32
2022-12-12T03:38:27.215Z,23.33
2022-12-12T03:38:57.247Z,23.32
2022-12-12T03:39:27.303Z,23.33
2022-12-12T03:39:57.309Z,23.34
2022-12-12T03:40:27.345Z,23.32
2022-12-12T03:40:57.378Z,23.34
2022-12-12T03:41:27.409Z,23.33
2022-12-12T03:41:57.447Z,23.33
2022-12-12T03:42:27.486Z,23.34
2022-12-12T03:42:57.517Z,23.33
2022-12-12T03:43:27.552Z,23.34
2022-12-12T03:43:57.593Z,23.36
2022-12-12T03:44:27.624Z,23.33
2022-12-12T03:44:57.653Z,23.34
2022-12-12T03:45:27.749Z,23.33
2022-12-12T03:45:57.793Z,23.32
2022-12-12T03:46:27.808Z,23.33
2022-12-12T03:46:57.843Z,23.33
2022-12-12T03:47:27.877Z,23.33
2022-12-12T03:47:57.915Z,23.30
2022-12-12T03:48:27.946Z,23.33
2022-12-12T03:48:57.978Z,23.32
2022-12-12T03:49:28.014Z,23.32
2022-12-12T03:49:58.050Z,23.32
2022-12-12T03:50:28.080Z,23.33
2022-12-12T03:50:58.110Z,23.34
2022-12-12T03:51:28.145Z,23.36
2022-12-12T03:51:58.177Z,23.40
2022-12-12T03:52:28.205Z,23.40
2022-12-12T03:52:58.251Z,23.40
2022-12-12T03:53:28.328Z,23.45
2022-12-12T03:53:58.345Z,23.51
2022-12-12T03:54:28.378Z,23.51
2022-12-12T03:54:58.438Z,23.57
2022-12-12T03:55:28.442Z,23.61
2022-12-12T03:55:58.473Z,23.64
2022-12-12T03:56:28.514Z,23.65
2022-12-12T03:56:58.537Z,23.71
2022-12-12T03:57:28.574Z,23.68
2022-12-12T03:57:58.612Z,23.75
2022-12-12T03:58:28.648Z,23.74
2022-12-12T03:58:58.683Z,23.77
2022-12-12T03:59:28.723Z,23.81
2022-12-12T03:59:58.745Z,23.84
2022-12-12T04:00:28.744Z,23.84
2022-12-12T04:00:58.788Z,23.87
2022-12-12T04:01:28.851Z,23.88
2022-12-12T04:01:58.902Z,23.87
2022-12-12T04:02:28.953Z,23.91
2022-12-12T04:02:58.989Z,23.91
2022-12-12T04:03:28.981Z,23.95
2022-12-12T04:03:58.975Z,23.93
2022-12-12T04:04:29.096Z,23.95
2022-12-12T04:04:59.211Z,23.96
2022-12-12T04:05:29.205Z,23.96
2022-12-12T04:05:59.329Z,23.98
2022-12-12T04:06:29.318Z,23.99
2022-12-12T04:06:59.436Z,23.99
2022-12-12T04:07:29.557Z,24.05
2022-12-12T04:07:59.706Z,24.03
2022-12-12T04:08:29.761Z,24.05
2022-12-12T04:08:59.769Z,24.06
2022-12-12T04:09:29.881Z,24.06
2022-12-12T04:09:59.878Z,24.06
2022-12-12T04:10:29.941Z,24.09
2022-12-12T04:10:59.952Z,24.10
2022-12-12T04:11:29.976Z,24.09
2022-12-12T04:12:00.006Z,24.09
2022-12-12T04:12:30.038Z,24.10
2022-12-12T04:13:00.087Z,24.16
2022-12-12T04:13:32.313Z,24.15
2022-12-12T04:14:00.194Z,24.15
2022-12-12T04:14:30.227Z,24.13
2022-12-12T04:15:39.260Z,24.15
2022-12-12T04:16:09.384Z,24.15
2022-12-12T04:16:39.464Z,24.13
2022-12-12T04:17:09.525Z,24.15
2022-12-12T04:17:39.604Z,24.15
2022-12-12T04:18:09.688Z,24.15
2022-12-12T04:18:39.771Z,24.16
2022-12-12T04:19:09.845Z,24.15
2022-12-12T04:19:39.950Z,24.15
2022-12-12T04:20:10.074Z,24.13
2022-12-12T04:20:40.035Z,24.13
2022-12-12T04:21:10.119Z,24.13
2022-12-12T04:21:40.200Z,24.15
2022-12-12T04:22:12.940Z,24.17
2022-12-12T04:22:40.391Z,24.16
2022-12-12T04:23:10.475Z,24.17
2022-12-12T04:23:40.557Z,24.17
2022-12-12T04:24:10.641Z,24.17
2022-12-12T04:24:40.718Z,24.20
2022-12-12T04:25:11.283Z,24.19
2022-12-12T04:25:40.874Z,24.21
2022-12-12T04:26:10.824Z,24.21
2022-12-12T04:26:40.830Z,24.21
2022-12-12T04:27:10.937Z,24.23
2022-12-12T04:27:41.058Z,24.23
2022-12-12T04:28:11.140Z,24.23
2022-12-12T04:28:41.152Z,24.20
2022-12-12T04:29:11.126Z,24.23
2022-12-12T04:29:41.124Z,24.21
2022-12-12T04:30:11.235Z,24.23
2022-12-12T04:30:41.354Z,24.24
2022-12-12T04:31:11.472Z,24.23
2022-12-12T04:31:41.686Z,24.21
2022-12-12T04:32:11.703Z,24.24
2022-12-12T04:32:41.691Z,24.26
2022-12-12T04:33:11.821Z,24.27
2022-12-12T04:33:41.806Z,24.26
2022-12-12T04:34:11.921Z,24.26
2022-12-12T04:34:41.913Z,24.27
2022-12-12T04:35:12.112Z,24.28
2022-12-12T04:35:41.923Z,24.27
2022-12-12T04:36:11.914Z,24.28
2022-12-12T04:36:42.032Z,24.30
2022-12-12T04:37:12.025Z,24.32
2022-12-12T04:37:42.021Z,24.32
2022-12-12T04:38:12.140Z,24.30
2022-12-12T04:38:42.138Z,24.28
2022-12-12T04:39:12.143Z,24.33
2022-12-12T04:39:42.266Z,24.30
2022-12-12T04:40:12.258Z,24.30
2022-12-12T04:40:42.380Z,24.34
2022-12-12T04:41:12.392Z,24.32
2022-12-12T04:41:42.370Z,24.36
2022-12-12T04:42:12.360Z,24.33
2022-12-12T04:42:42.359Z,24.32
2022-12-12T04:43:12.462Z,24.34
2022-12-12T04:43:42.462Z,24.36
2022-12-12T04:44:12.458Z,24.33
2022-12-12T04:44:42.574Z,24.36
2022-12-12T04:45:12.989Z,24.32
2022-12-12T04:45:42.766Z,24.36
2022-12-12T04:46:12.750Z,24.37
2022-12-12T04:46:42.724Z,24.36
2022-12-12T04:47:12.718Z,24.36
2022-12-12T04:47:42.713Z,24.33
2022-12-12T04:48:12.856Z,24.33
2022-12-12T04:48:44.128Z,24.34
2022-12-12T04:49:12.907Z,24.34
2022-12-12T04:49:42.903Z,24.37
2022-12-12T04:50:12.897Z,24.34
2022-12-12T04:50:42.896Z,24.36
2022-12-12T04:51:13.014Z,24.37
2022-12-12T04:51:43.012Z,24.36
2022-12-12T04:52:13.007Z,24.08
2022-12-12T04:52:43.005Z,24.20
2022-12-12T04:53:18.197Z,24.21
2022-12-12T04:53:43.169Z,24.21
2022-12-12T04:54:13.163Z,24.24
2022-12-12T04:54:43.281Z,24.24
2022-12-12T04:55:13.740Z,24.28
2022-12-12T04:55:43.464Z,24.30
2022-12-12T04:56:13.464Z,24.30
2022-12-12T04:56:43.608Z,24.32
2022-12-12T04:57:13.598Z,24.33
2022-12-12T04:57:43.575Z,24.34
2022-12-12T04:58:13.593Z,24.36
2022-12-12T04:58:43.585Z,24.36
2022-12-12T04:59:13.704Z,24.43
2022-12-12T04:59:43.819Z,24.42
2022-12-12T05:00:13.820Z,24.44
2022-12-12T05:00:43.931Z,24.46
2022-12-12T05:01:14.081Z,24.43
2022-12-12T05:01:49.596Z,24.48
2022-12-12T05:02:14.258Z,24.48
2022-12-12T05:02:44.188Z,24.50
2022-12-12T05:03:14.220Z,24.50
2022-12-12T05:03:44.262Z,24.51
2022-12-12T05:04:14.260Z,24.55
2022-12-12T05:04:44.258Z,24.54
2022-12-12T05:05:14.546Z,24.61
2022-12-12T05:05:44.360Z,24.58
2022-12-12T05:06:14.483Z,24.60
2022-12-12T05:06:44.597Z,24.61
2022-12-12T05:07:14.713Z,24.62
2022-12-12T05:07:44.838Z,24.64
2022-12-12T05:08:15.003Z,24.64
2022-12-12T05:08:44.997Z,24.65
2022-12-12T05:09:14.989Z,24.68
2022-12-12T05:09:45.101Z,24.68
2022-12-12T05:10:15.219Z,24.71
2022-12-12T05:10:45.333Z,24.71
2022-12-12T05:11:15.451Z,24.74
2022-12-12T05:11:45.442Z,24.75
2022-12-12T05:12:15.586Z,24.78
2022-12-12T05:12:45.668Z,24.78
2022-12-12T05:13:15.682Z,24.81
2022-12-12T05:13:45.664Z,24.78
2022-12-12T05:14:15.780Z,24.82
2022-12-12T05:14:45.781Z,24.82
2022-12-12T05:15:16.064Z,24.86
2022-12-12T05:15:46.000Z,24.85
2022-12-12T05:16:16.117Z,24.85
2022-12-12T05:16:46.252Z,24.85
2022-12-12T05:17:16.212Z,24.85
2022-12-12T05:17:46.288Z,24.89
2022-12-12T05:18:16.377Z,24.89
2022-12-12T05:18:46.469Z,24.92
2022-12-12T05:19:16.551Z,24.92
2022-12-12T05:19:46.626Z,24.96
2022-12-12T05:20:16.706Z,24.96
2022-12-12T05:20:46.785Z,24.96
2022-12-12T05:21:16.867Z,24.98
2022-12-12T05:21:46.942Z,24.99
2022-12-12T05:22:17.021Z,24.98
2022-12-12T05:22:47.100Z,24.99
2022-12-12T05:23:17.190Z,25.01
2022-12-12T05:23:47.346Z,25.02
2022-12-12T05:24:17.297Z,25.02
2022-12-12T05:24:47.376Z,25.03
2022-12-12T05:25:17.465Z,25.02
2022-12-12T05:25:47.455Z,25.03
2022-12-12T05:26:17.572Z,25.07
2022-12-12T05:26:47.680Z,25.09
2022-12-12T05:27:17.680Z,25.07
2022-12-12T05:27:47.818Z,25.09
2022-12-12T05:28:17.913Z,25.09
2022-12-12T05:28:47.918Z,25.09
2022-12-12T05:29:18.034Z,25.12
2022-12-12T05:29:48.026Z,25.15
2022-12-12T05:30:18.028Z,25.12
2022-12-12T05:30:48.200Z,25.15
2022-12-12T05:31:18.255Z,25.15
2022-12-12T05:31:48.250Z,25.13
2022-12-12T05:32:18.367Z,25.16
2022-12-12T05:32:48.362Z,25.19
2022-12-12T05:33:18.560Z,25.19
2022-12-12T05:33:48.423Z,25.17
2022-12-12T05:34:18.541Z,25.22
2022-12-12T05:34:48.720Z,25.19
2022-12-12T05:35:18.736Z,25.19
2022-12-12T05:35:48.846Z,25.23
2022-12-12T05:36:18.845Z,25.22
2022-12-12T05:36:48.968Z,25.24
2022-12-12T05:37:18.962Z,25.26
2022-12-12T05:37:51.896Z,25.26
2022-12-12T05:38:19.133Z,25.24
2022-12-12T05:38:49.276Z,25.23
2022-12-12T05:39:19.264Z,25.22
2022-12-12T05:39:49.258Z,25.24
2022-12-12T05:40:19.373Z,25.26
2022-12-12T05:40:49.489Z,25.27
2022-12-12T05:41:19.607Z,25.27
2022-12-12T05:41:49.632Z,25.29
2022-12-12T05:42:19.633Z,25.29
2022-12-12T05:42:49.753Z,25.32
2022-12-12T05:43:19.914Z,25.30
2022-12-12T05:43:49.897Z,25.29
2022-12-12T05:44:19.895Z,25.32
2022-12-12T05:44:50.008Z,25.30
2022-12-12T05:45:20.012Z,25.33
2022-12-12T05:45:50.200Z,25.33
2022-12-12T05:46:20.235Z,25.34
2022-12-12T05:46:50.207Z,25.34
2022-12-12T05:47:20.332Z,25.34
2022-12-12T05:47:50.322Z,25.34
2022-12-12T05:48:24.360Z,25.34
2022-12-12T05:48:50.394Z,25.34
2022-12-12T05:49:20.502Z,25.36
2022-12-12T05:49:50.630Z,25.37
2022-12-12T05:50:20.639Z,25.38
2022-12-12T05:50:50.661Z,25.37
2022-12-12T05:51:20.679Z,25.38
2022-12-12T05:51:50.676Z,25.38
2022-12-12T05:52:20.795Z,25.38
2022-12-12T05:52:50.910Z,25.37
2022-12-12T05:53:21.036Z,25.41
2022-12-12T05:53:51.048Z,25.40
2022-12-12T05:54:21.039Z,25.40
2022-12-12T05:54:51.156Z,25.40
2022-12-12T05:55:21.277Z,25.38
2022-12-12T05:55:51.269Z,25.40
2022-12-12T05:56:21.389Z,25.41
2022-12-12T05:56:51.411Z,25.43
2022-12-12T05:57:21.404Z,25.40
2022-12-12T05:57:51.387Z,25.44
2022-12-12T05:58:21.386Z,25.47
2022-12-12T05:58:51.454Z,25.47
2022-12-12T05:59:21.399Z,25.48
2022-12-12T05:59:51.392Z,25.47
2022-12-12T06:00:21.514Z,25.50
2022-12-12T06:00:51.624Z,25.48
2022-12-12T06:01:21.622Z,25.48
2022-12-12T06:01:51.615Z,25.53
2022-12-12T06:02:21.798Z,25.50
2022-12-12T06:02:51.848Z,25.54
2022-12-12T06:03:21.847Z,25.51
2022-12-12T06:03:51.876Z,25.54
2022-12-12T06:04:21.911Z,25.53
2022-12-12T06:04:51.904Z,25.56
2022-12-12T06:05:22.023Z,25.54
2022-12-12T06:05:52.136Z,25.54
2022-12-12T06:06:22.130Z,25.54
2022-12-12T06:06:52.252Z,25.54
2022-12-12T06:07:22.367Z,25.56
2022-12-12T06:07:52.534Z,25.53
2022-12-12T06:08:25.138Z,25.54
2022-12-12T06:08:52.599Z,25.56
2022-12-12T06:09:22.705Z,25.58
2022-12-12T06:09:52.821Z,25.53
2022-12-12T06:10:22.943Z,25.56
2022-12-12T06:10:53.055Z,25.56
2022-12-12T06:11:23.175Z,25.53
2022-12-12T06:11:53.168Z,25.53
2022-12-12T06:12:23.284Z,25.54
2022-12-12T06:12:53.400Z,25.56
2022-12-12T06:13:23.439Z,25.56
2022-12-12T06:13:53.478Z,25.57
2022-12-12T06:14:23.492Z,25.58
2022-12-12T06:14:53.493Z,25.56
2022-12-12T06:15:23.593Z,25.58
2022-12-12T06:15:53.746Z,25.56
2022-12-12T06:16:23.735Z,25.60
2022-12-12T06:16:53.717Z,25.60
2022-12-12T06:17:27.177Z,25.58
2022-12-12T06:17:53.909Z,25.58
2022-12-12T06:18:23.993Z,25.61
2022-12-12T06:18:54.077Z,25.60
2022-12-12T06:19:24.152Z,25.61
2022-12-12T06:19:54.240Z,25.64
2022-12-12T06:20:24.318Z,25.64
2022-12-12T06:20:54.405Z,25.61
2022-12-12T06:21:24.487Z,25.62
2022-12-12T06:21:54.577Z,25.67
2022-12-12T06:22:24.646Z,25.65
2022-12-12T06:22:54.726Z,25.67
2022-12-12T06:23:24.816Z,25.67
2022-12-12T06:23:54.896Z,25.67
2022-12-12T06:24:24.984Z,25.68
2022-12-12T06:24:55.066Z,25.68
2022-12-12T06:25:25.171Z,25.68
2022-12-12T06:25:55.161Z,25.68
2022-12-12T06:26:25.160Z,25.71
2022-12-12T06:26:55.156Z,25.71
2022-12-12T06:27:25.272Z,25.68